sensor_id;sensor_type;location;lat;lon;timestamp;pressure;altitude;pressure_sealevel;temperature;humidity
10167;BME280;62970;53.130;8.244;2023-02-28T00:00:15;103166.19;;;3.43;58.55
10167;BME280;62970;53.130;8.244;2023-02-28T00:02:45;103171.38;;;3.43;58.53
10167;BME280;62970;53.130;8.244;2023-02-28T00:05:17;103185.16;;;3.44;58.36
10167;BME280;62970;53.130;8.244;2023-02-28T00:07:48;103172.19;;;3.42;58.58
10167;BME280;62970;53.130;8.244;2023-02-28T00:10:24;103174.75;;;3.42;58.60
10167;BME280;62970;53.130;8.244;2023-02-28T00:12:58;103178.22;;;3.43;58.76
10167;BME280;62970;53.130;8.244;2023-02-28T00:15:27;103173.00;;;3.41;58.70
10167;BME280;62970;53.130;8.244;2023-02-28T00:17:57;103183.31;;;3.41;58.88
10167;BME280;62970;53.130;8.244;2023-02-28T00:20:26;103174.63;;;3.39;58.63
10167;BME280;62970;53.130;8.244;2023-02-28T00:22:56;103166.81;;;3.38;58.77
10167;BME280;62970;53.130;8.244;2023-02-28T00:25:28;103176.25;;;3.37;58.71
10167;BME280;62970;53.130;8.244;2023-02-28T00:27:58;103178.03;;;3.38;59.02
10167;BME280;62970;53.130;8.244;2023-02-28T00:30:27;103172.84;;;3.38;58.75
10167;BME280;62970;53.130;8.244;2023-02-28T00:32:56;103178.97;;;3.40;59.08
10167;BME280;62970;53.130;8.244;2023-02-28T00:35:26;103177.22;;;3.39;58.79
10167;BME280;62970;53.130;8.244;2023-02-28T00:37:55;103178.09;;;3.40;58.68
10167;BME280;62970;53.130;8.244;2023-02-28T00:40:27;103176.25;;;3.37;59.02
10167;BME280;62970;53.130;8.244;2023-02-28T00:42:57;103179.66;;;3.36;58.82
10167;BME280;62970;53.130;8.244;2023-02-28T00:45:27;103171.03;;;3.36;58.96
10167;BME280;62970;53.130;8.244;2023-02-28T00:47:56;103172.78;;;3.37;58.92
10167;BME280;62970;53.130;8.244;2023-02-28T00:50:25;103172.78;;;3.37;58.98
10167;BME280;62970;53.130;8.244;2023-02-28T00:52:55;103175.38;;;3.37;58.99
10167;BME280;62970;53.130;8.244;2023-02-28T00:55:25;103180.59;;;3.38;59.44
10167;BME280;62970;53.130;8.244;2023-02-28T00:57:56;103176.25;;;3.37;58.91
10167;BME280;62970;53.130;8.244;2023-02-28T01:00:26;103190.91;;;3.38;59.13
10167;BME280;62970;53.130;8.244;2023-02-28T01:02:56;103188.28;;;3.37;59.46
10167;BME280;62970;53.130;8.244;2023-02-28T01:05:25;103181.41;;;3.37;59.15
10167;BME280;62970;53.130;8.244;2023-02-28T01:07:54;103190.03;;;3.38;59.52
10167;BME280;62970;53.130;8.244;2023-02-28T01:10:25;103205.44;;;3.36;58.99
10167;BME280;62970;53.130;8.244;2023-02-28T01:13:00;103188.13;;;3.34;59.38
10167;BME280;62970;53.130;8.244;2023-02-28T01:15:29;103187.25;;;3.33;59.38
10167;BME280;62970;53.130;8.244;2023-02-28T01:18:00;103188.94;;;3.33;59.25
10167;BME280;62970;53.130;8.244;2023-02-28T01:20:29;103188.88;;;3.31;59.07
10167;BME280;62970;53.130;8.244;2023-02-28T01:22:59;103191.47;;;3.31;59.53
10167;BME280;62970;53.130;8.244;2023-02-28T01:25:29;103187.19;;;3.32;59.71
10167;BME280;62970;53.130;8.244;2023-02-28T01:28:01;103188.00;;;3.31;59.57
10167;BME280;62970;53.130;8.244;2023-02-28T01:30:31;103189.75;;;3.32;59.65
10167;BME280;62970;53.130;8.244;2023-02-28T01:33:01;103188.06;;;3.32;59.75
10167;BME280;62970;53.130;8.244;2023-02-28T01:35:33;103190.56;;;3.31;59.27
10167;BME280;62970;53.130;8.244;2023-02-28T01:38:03;103185.41;;;3.31;59.76
10167;BME280;62970;53.130;8.244;2023-02-28T01:40:32;103191.31;;;3.28;59.65
10167;BME280;62970;53.130;8.244;2023-02-28T01:43:10;103187.88;;;3.28;59.82
10167;BME280;62970;53.130;8.244;2023-02-28T01:45:47;103186.97;;;3.27;59.54
10167;BME280;62970;53.130;8.244;2023-02-28T01:48:17;103186.03;;;3.25;59.48
10167;BME280;62970;53.130;8.244;2023-02-28T01:50:48;103183.38;;;3.24;59.69
10167;BME280;62970;53.130;8.244;2023-02-28T01:53:23;103179.84;;;3.22;59.68
10167;BME280;62970;53.130;8.244;2023-02-28T01:55:55;103181.56;;;3.21;59.68
10167;BME280;62970;53.130;8.244;2023-02-28T01:58:27;103177.13;;;3.19;59.76
10167;BME280;62970;53.130;8.244;2023-02-28T02:00:56;103173.69;;;3.18;59.99
10167;BME280;62970;53.130;8.244;2023-02-28T02:03:25;103175.38;;;3.18;60.04
10167;BME280;62970;53.130;8.244;2023-02-28T02:05:55;103166.75;;;3.17;59.86
10167;BME280;62970;53.130;8.244;2023-02-28T02:08:26;103169.28;;;3.16;59.83
10167;BME280;62970;53.130;8.244;2023-02-28T02:11:00;103169.19;;;3.14;59.58
10167;BME280;62970;53.130;8.244;2023-02-28T02:13:58;103170.81;;;3.12;59.51
10167;BME280;62970;53.130;8.244;2023-02-28T02:16:42;103164.72;;;3.10;59.86
10167;BME280;62970;53.130;8.244;2023-02-28T02:19:44;103174.91;;;3.07;59.75
10167;BME280;62970;53.130;8.244;2023-02-28T02:22:50;103169.53;;;3.02;59.50
10167;BME280;62970;53.130;8.244;2023-02-28T02:25:28;103163.44;;;3.00;59.59
10167;BME280;62970;53.130;8.244;2023-02-28T02:28:52;103168.44;;;2.97;59.72
10167;BME280;62970;53.130;8.244;2023-02-28T02:31:50;103163.97;;;2.93;59.95
10167;BME280;62970;53.130;8.244;2023-02-28T02:34:43;103160.38;;;2.90;60.06
10167;BME280;62970;53.130;8.244;2023-02-28T02:37:25;103163.66;;;2.87;59.83
10167;BME280;62970;53.130;8.244;2023-02-28T02:40:07;103158.44;;;2.86;60.22
10167;BME280;62970;53.130;8.244;2023-02-28T02:42:45;103163.50;;;2.84;60.25
10167;BME280;62970;53.130;8.244;2023-02-28T02:45:22;103166.81;;;2.81;60.21
10167;BME280;62970;53.130;8.244;2023-02-28T02:47:57;103171.84;;;2.78;60.25
10167;BME280;62970;53.130;8.244;2023-02-28T02:50:34;103172.59;;;2.76;60.02
10167;BME280;62970;53.130;8.244;2023-02-28T02:53:07;103169.94;;;2.74;60.05
10167;BME280;62970;53.130;8.244;2023-02-28T02:55:42;103168.25;;;2.75;60.22
10167;BME280;62970;53.130;8.244;2023-02-28T02:58:16;103166.53;;;2.75;60.42
10167;BME280;62970;53.130;8.244;2023-02-28T03:00:52;103161.41;;;2.75;60.33
10167;BME280;62970;53.130;8.244;2023-02-28T03:03:23;103167.34;;;2.74;60.12
10167;BME280;62970;53.130;8.244;2023-02-28T03:05:59;103163.00;;;2.73;60.18
10167;BME280;62970;53.130;8.244;2023-02-28T03:08:37;103158.75;;;2.74;60.13
10167;BME280;62970;53.130;8.244;2023-02-28T03:11:12;103163.91;;;2.74;60.67
10167;BME280;62970;53.130;8.244;2023-02-28T03:14:03;103165.59;;;2.73;60.10
10167;BME280;62970;53.130;8.244;2023-02-28T03:16:52;103159.56;;;2.73;60.53
10167;BME280;62970;53.130;8.244;2023-02-28T03:19:51;103161.25;;;2.72;60.45
10167;BME280;62970;53.130;8.244;2023-02-28T03:22:39;103157.78;;;2.72;60.53
10167;BME280;62970;53.130;8.244;2023-02-28T03:25:28;103165.44;;;2.70;60.23
10167;BME280;62970;53.130;8.244;2023-02-28T03:28:05;103167.16;;;2.70;60.28
10167;BME280;62970;53.130;8.244;2023-02-28T03:30:45;103163.69;;;2.69;60.24
10167;BME280;62970;53.130;8.244;2023-02-28T03:33:23;103168.03;;;2.70;60.55
10167;BME280;62970;53.130;8.244;2023-02-28T03:36:01;103172.31;;;2.70;60.16
10167;BME280;62970;53.130;8.244;2023-02-28T03:38:40;103168.78;;;2.68;60.20
10167;BME280;62970;53.130;8.244;2023-02-28T03:41:15;103174.00;;;2.69;60.38
10167;BME280;62970;53.130;8.244;2023-02-28T03:43:51;103174.88;;;2.70;60.70
10167;BME280;62970;53.130;8.244;2023-02-28T03:46:26;103173.19;;;2.70;60.70
10167;BME280;62970;53.130;8.244;2023-02-28T03:49:02;103171.56;;;2.72;60.41
10167;BME280;62970;53.130;8.244;2023-02-28T03:51:34;103169.06;;;2.74;60.38
10167;BME280;62970;53.130;8.244;2023-02-28T03:54:11;103169.94;;;2.74;60.88
10167;BME280;62970;53.130;8.244;2023-02-28T03:56:47;103171.69;;;2.75;60.64
10167;BME280;62970;53.130;8.244;2023-02-28T03:59:23;103179.50;;;2.77;60.70
10167;BME280;62970;53.130;8.244;2023-02-28T04:01:55;103180.38;;;2.77;60.85
10167;BME280;62970;53.130;8.244;2023-02-28T04:04:26;103180.38;;;2.77;60.82
10167;BME280;62970;53.130;8.244;2023-02-28T04:07:03;103178.63;;;2.76;60.78
10167;BME280;62970;53.130;8.244;2023-02-28T04:09:35;103174.28;;;2.75;60.39
10167;BME280;62970;53.130;8.244;2023-02-28T04:12:06;103172.59;;;2.76;60.59
10167;BME280;62970;53.130;8.244;2023-02-28T04:14:35;103183.78;;;2.76;60.92
10167;BME280;62970;53.130;8.244;2023-02-28T04:17:04;103186.34;;;2.76;60.55
10167;BME280;62970;53.130;8.244;2023-02-28T04:19:34;103187.09;;;2.74;60.68
10167;BME280;62970;53.130;8.244;2023-02-28T04:22:03;103195.69;;;2.74;60.78
10167;BME280;62970;53.130;8.244;2023-02-28T04:24:35;103191.28;;;2.72;60.67
10167;BME280;62970;53.130;8.244;2023-02-28T04:27:08;103186.88;;;2.69;60.78
10167;BME280;62970;53.130;8.244;2023-02-28T04:29:38;103189.44;;;2.69;60.76
10167;BME280;62970;53.130;8.244;2023-02-28T04:32:12;103186.00;;;2.69;60.85
10167;BME280;62970;53.130;8.244;2023-02-28T04:34:41;103186.72;;;2.66;60.41
10167;BME280;62970;53.130;8.244;2023-02-28T04:37:11;103182.47;;;2.67;60.48
10167;BME280;62970;53.130;8.244;2023-02-28T04:39:43;103185.78;;;2.64;60.41
10167;BME280;62970;53.130;8.244;2023-02-28T04:42:13;103182.31;;;2.64;60.80
10167;BME280;62970;53.130;8.244;2023-02-28T04:44:42;103187.41;;;2.62;60.43
10167;BME280;62970;53.130;8.244;2023-02-28T04:47:13;103188.22;;;2.61;60.73
10167;BME280;62970;53.130;8.244;2023-02-28T04:49:42;103183.06;;;2.61;60.57
10167;BME280;62970;53.130;8.244;2023-02-28T04:52:11;103184.75;;;2.61;60.67
10167;BME280;62970;53.130;8.244;2023-02-28T04:54:43;103185.56;;;2.60;60.41
10167;BME280;62970;53.130;8.244;2023-02-28T04:57:12;103194.19;;;2.60;60.35
10167;BME280;62970;53.130;8.244;2023-02-28T04:59:41;103193.16;;;2.57;60.09
10167;BME280;62970;53.130;8.244;2023-02-28T05:02:11;103189.69;;;2.56;60.40
10167;BME280;62970;53.130;8.244;2023-02-28T05:04:40;103181.00;;;2.54;60.30
10167;BME280;62970;53.130;8.244;2023-02-28T05:07:09;103180.94;;;2.53;60.56
10167;BME280;62970;53.130;8.244;2023-02-28T05:09:38;103184.25;;;2.50;60.22
10167;BME280;62970;53.130;8.244;2023-02-28T05:12:10;103185.88;;;2.48;60.05
10167;BME280;62970;53.130;8.244;2023-02-28T05:14:40;103190.94;;;2.46;60.01
10167;BME280;62970;53.130;8.244;2023-02-28T05:17:10;103188.16;;;2.42;60.13
10167;BME280;62970;53.130;8.244;2023-02-28T05:19:39;103184.47;;;2.37;59.79
10167;BME280;62970;53.130;8.244;2023-02-28T05:22:14;103193.66;;;2.32;60.28
10167;BME280;62970;53.130;8.244;2023-02-28T05:24:44;103191.81;;;2.29;60.02
10167;BME280;62970;53.130;8.244;2023-02-28T05:27:16;103195.88;;;2.24;59.81
10167;BME280;62970;53.130;8.244;2023-02-28T05:29:45;103202.63;;;2.22;59.94
10167;BME280;62970;53.130;8.244;2023-02-28T05:32:14;103193.03;;;2.20;60.14
10167;BME280;62970;53.130;8.244;2023-02-28T05:34:44;103195.53;;;2.18;59.71
10167;BME280;62970;53.130;8.244;2023-02-28T05:37:15;103192.72;;;2.13;60.36
10167;BME280;62970;53.130;8.244;2023-02-28T05:39:44;103190.97;;;2.12;60.22
10167;BME280;62970;53.130;8.244;2023-02-28T05:42:16;103199.34;;;2.08;59.81
10167;BME280;62970;53.130;8.244;2023-02-28T05:44:46;103193.91;;;2.02;59.78
10167;BME280;62970;53.130;8.244;2023-02-28T05:47:15;103205.72;;;1.99;60.02
10167;BME280;62970;53.130;8.244;2023-02-28T05:49:45;103192.56;;;1.93;60.03
10167;BME280;62970;53.130;8.244;2023-02-28T05:52:14;103206.06;;;1.89;59.78
10167;BME280;62970;53.130;8.244;2023-02-28T05:54:43;103203.34;;;1.85;60.22
10167;BME280;62970;53.130;8.244;2023-02-28T05:57:13;103206.66;;;1.83;60.38
10167;BME280;62970;53.130;8.244;2023-02-28T05:59:45;103214.94;;;1.77;60.28
10167;BME280;62970;53.130;8.244;2023-02-28T06:02:16;103201.91;;;1.74;60.52
10167;BME280;62970;53.130;8.244;2023-02-28T06:04:46;103215.50;;;1.72;60.40
10167;BME280;62970;53.130;8.244;2023-02-28T06:07:15;103210.22;;;1.69;60.57
10167;BME280;62970;53.130;8.244;2023-02-28T06:09:45;103214.41;;;1.67;60.35
10167;BME280;62970;53.130;8.244;2023-02-28T06:12:14;103217.78;;;1.66;60.54
10167;BME280;62970;53.130;8.244;2023-02-28T06:14:46;103211.66;;;1.64;60.54
10167;BME280;62970;53.130;8.244;2023-02-28T06:17:15;103214.25;;;1.64;60.20
10167;BME280;62970;53.130;8.244;2023-02-28T06:19:44;103215.13;;;1.64;60.44
10167;BME280;62970;53.130;8.244;2023-02-28T06:22:14;103222.13;;;1.67;60.57
10167;BME280;62970;53.130;8.244;2023-02-28T06:24:43;103234.31;;;1.71;60.48
10167;BME280;62970;53.130;8.244;2023-02-28T06:27:13;103234.47;;;1.74;60.52
10167;BME280;62970;53.130;8.244;2023-02-28T06:29:44;103235.44;;;1.76;60.08
10167;BME280;62970;53.130;8.244;2023-02-28T06:32:13;103243.41;;;1.80;60.19
10167;BME280;62970;53.130;8.244;2023-02-28T06:34:43;103244.38;;;1.82;60.55
10167;BME280;62970;53.130;8.244;2023-02-28T06:37:12;103245.31;;;1.84;60.47
10167;BME280;62970;53.130;8.244;2023-02-28T06:39:42;103237.69;;;1.86;59.87
10167;BME280;62970;53.130;8.244;2023-02-28T06:42:12;103242.03;;;1.87;60.18
10167;BME280;62970;53.130;8.244;2023-02-28T06:44:41;103247.16;;;1.87;59.80
10167;BME280;62970;53.130;8.244;2023-02-28T06:47:13;103242.09;;;1.89;60.16
10167;BME280;62970;53.130;8.244;2023-02-28T06:49:42;103245.63;;;1.91;60.28
10167;BME280;62970;53.130;8.244;2023-02-28T06:52:12;103251.66;;;1.91;59.80
10167;BME280;62970;53.130;8.244;2023-02-28T06:54:41;103254.31;;;1.93;59.70
10167;BME280;62970;53.130;8.244;2023-02-28T06:57:10;103256.09;;;1.94;59.63
10167;BME280;62970;53.130;8.244;2023-02-28T06:59:40;103263.00;;;1.95;59.63
10167;BME280;62970;53.130;8.244;2023-02-28T07:02:12;103257.06;;;1.96;59.96
10167;BME280;62970;53.130;8.244;2023-02-28T07:04:41;103263.16;;;1.98;59.48
10167;BME280;62970;53.130;8.244;2023-02-28T07:07:10;103265.88;;;2.01;59.59
10167;BME280;62970;53.130;8.244;2023-02-28T07:09:40;103266.03;;;2.04;59.83
10167;BME280;62970;53.130;8.244;2023-02-28T07:12:12;103261.94;;;2.07;59.38
10167;BME280;62970;53.130;8.244;2023-02-28T07:14:41;103269.88;;;2.12;59.50
10167;BME280;62970;53.130;8.244;2023-02-28T07:17:16;103273.50;;;2.15;59.48
10167;BME280;62970;53.130;8.244;2023-02-28T07:19:45;103276.34;;;2.20;59.19
10167;BME280;62970;53.130;8.244;2023-02-28T07:22:15;103281.88;;;2.28;59.18
10167;BME280;62970;53.130;8.244;2023-02-28T07:24:46;103277.91;;;2.34;59.52
10167;BME280;62970;53.130;8.244;2023-02-28T07:27:17;103272.31;;;2.43;59.27
10167;BME280;62970;53.130;8.244;2023-02-28T07:29:49;103273.59;;;2.51;59.05
10167;BME280;62970;53.130;8.244;2023-02-28T07:32:22;103266.81;;;2.53;58.84
10167;BME280;62970;53.130;8.244;2023-02-28T07:34:51;103273.66;;;2.53;58.51
10167;BME280;62970;53.130;8.244;2023-02-28T07:37:24;103274.25;;;2.47;58.34
10167;BME280;62970;53.130;8.244;2023-02-28T07:39:57;103273.06;;;2.40;58.36
10167;BME280;62970;53.130;8.244;2023-02-28T07:42:27;103280.41;;;2.33;58.48
10167;BME280;62970;53.130;8.244;2023-02-28T07:44:56;103280.75;;;2.23;58.25
10167;BME280;62970;53.130;8.244;2023-02-28T07:47:32;103280.25;;;2.13;58.37
10167;BME280;62970;53.130;8.244;2023-02-28T07:50:01;103284.06;;;2.04;58.47
10167;BME280;62970;53.130;8.244;2023-02-28T07:52:31;103287.13;;;1.97;58.33
10167;BME280;62970;53.130;8.244;2023-02-28T19:52:19;103202.59;;;-0.58;57.97
10167;BME280;62970;53.130;8.244;2023-02-28T19:54:49;103212.06;;;-0.57;58.02
10167;BME280;62970;53.130;8.244;2023-02-28T19:57:21;103206.06;;;-0.58;58.46
10167;BME280;62970;53.130;8.244;2023-02-28T19:59:50;103222.41;;;-0.56;58.58
10167;BME280;62970;53.130;8.244;2023-02-28T20:02:20;103216.41;;;-0.56;58.62
10167;BME280;62970;53.130;8.244;2023-02-28T20:04:51;103221.53;;;-0.56;58.54
10167;BME280;62970;53.130;8.244;2023-02-28T20:07:25;103219.75;;;-0.57;58.25
10167;BME280;62970;53.130;8.244;2023-02-28T20:09:55;103229.22;;;-0.56;58.35
10167;BME280;62970;53.130;8.244;2023-02-28T20:12:25;103228.41;;;-0.55;58.56
10167;BME280;62970;53.130;8.244;2023-02-28T20:14:55;103231.88;;;-0.55;58.42
10167;BME280;62970;53.130;8.244;2023-02-28T20:17:25;103232.75;;;-0.54;58.98
10167;BME280;62970;53.130;8.244;2023-02-28T20:19:57;103234.34;;;-0.56;58.82
10167;BME280;62970;53.130;8.244;2023-02-28T20:22:29;103237.69;;;-0.57;58.46
10167;BME280;62970;53.130;8.244;2023-02-28T20:24:59;103225.56;;;-0.60;58.53
10167;BME280;62970;53.130;8.244;2023-02-28T20:27:28;103230.81;;;-0.58;58.97
10167;BME280;62970;53.130;8.244;2023-02-28T20:30:01;103234.16;;;-0.59;59.09
10167;BME280;62970;53.130;8.244;2023-02-28T20:32:34;103239.09;;;-0.62;58.69
10167;BME280;62970;53.130;8.244;2023-02-28T20:35:06;103239.09;;;-0.62;59.13
10167;BME280;62970;53.130;8.244;2023-02-28T20:37:39;103232.91;;;-0.66;59.04
10167;BME280;62970;53.130;8.244;2023-02-28T20:40:12;103236.16;;;-0.68;58.92
10167;BME280;62970;53.130;8.244;2023-02-28T20:42:41;103239.41;;;-0.71;59.21
10167;BME280;62970;53.130;8.244;2023-02-28T20:45:11;103239.22;;;-0.74;58.91
10167;BME280;62970;53.130;8.244;2023-02-28T20:47:40;103233.91;;;-0.77;59.25
10167;BME280;62970;53.130;8.244;2023-02-28T20:50:11;103236.38;;;-0.79;59.02
10167;BME280;62970;53.130;8.244;2023-02-28T20:52:45;103234.44;;;-0.83;59.11
10167;BME280;62970;53.130;8.244;2023-02-28T20:55:14;103233.34;;;-0.86;59.36
10167;BME280;62970;53.130;8.244;2023-02-28T20:57:43;103232.28;;;-0.90;59.32
10167;BME280;62970;53.130;8.244;2023-02-28T21:00:15;103231.19;;;-0.93;59.14
10167;BME280;62970;53.130;8.244;2023-02-28T21:02:45;103234.47;;;-0.96;59.14
10167;BME280;62970;53.130;8.244;2023-02-28T21:05:14;103222.34;;;-0.98;59.58
10167;BME280;62970;53.130;8.244;2023-02-28T21:07:46;103225.59;;;-1.01;59.39
10167;BME280;62970;53.130;8.244;2023-02-28T21:10:17;103223.63;;;-1.05;59.54
10167;BME280;62970;53.130;8.244;2023-02-28T21:12:51;103227.69;;;-1.09;59.19
10167;BME280;62970;53.130;8.244;2023-02-28T21:15:23;103227.41;;;-1.13;59.61
10167;BME280;62970;53.130;8.244;2023-02-28T21:17:52;103233.22;;;-1.16;59.63
10167;BME280;62970;53.130;8.244;2023-02-28T21:20:21;103240.69;;;-1.19;59.74
10167;BME280;62970;53.130;8.244;2023-02-28T21:22:53;103233.63;;;-1.23;59.39
10167;BME280;62970;53.130;8.244;2023-02-28T21:25:23;103235.19;;;-1.25;59.59
10167;BME280;62970;53.130;8.244;2023-02-28T21:27:52;103227.31;;;-1.28;59.35
10167;BME280;62970;53.130;8.244;2023-02-28T21:30:22;103236.47;;;-1.31;59.94
10167;BME280;62970;53.130;8.244;2023-02-28T21:32:52;103232.03;;;-1.34;59.77
10167;BME280;62970;53.130;8.244;2023-02-28T21:35:22;103232.75;;;-1.36;59.77
10167;BME280;62970;53.130;8.244;2023-02-28T21:37:54;103241.91;;;-1.40;59.58
10167;BME280;62970;53.130;8.244;2023-02-28T21:40:23;103230.66;;;-1.42;59.71
10167;BME280;62970;53.130;8.244;2023-02-28T21:42:52;103233.91;;;-1.45;60.02
10167;BME280;62970;53.130;8.244;2023-02-28T21:45:21;103230.28;;;-1.48;59.80
10167;BME280;62970;53.130;8.244;2023-02-28T21:47:52;103236.97;;;-1.50;59.71
10167;BME280;62970;53.130;8.244;2023-02-28T21:50:21;103227.31;;;-1.54;59.77
10167;BME280;62970;53.130;8.244;2023-02-28T21:52:50;103234.81;;;-1.57;59.77
10167;BME280;62970;53.130;8.244;2023-02-28T21:55:22;103235.59;;;-1.58;59.81
10167;BME280;62970;53.130;8.244;2023-02-28T21:57:52;103241.41;;;-1.61;60.12
10167;BME280;62970;53.130;8.244;2023-02-28T22:00:21;103231.84;;;-1.63;60.21
10167;BME280;62970;53.130;8.244;2023-02-28T22:02:51;103234.22;;;-1.66;60.00
10167;BME280;62970;53.130;8.244;2023-02-28T22:05:20;103234.09;;;-1.68;59.81
10167;BME280;62970;53.130;8.244;2023-02-28T22:07:49;103244.25;;;-1.69;60.15
10167;BME280;62970;53.130;8.244;2023-02-28T22:10:18;103245.81;;;-1.72;60.00
10167;BME280;62970;53.130;8.244;2023-02-28T22:12:51;103243.84;;;-1.76;60.33
10167;BME280;62970;53.130;8.244;2023-02-28T22:15:21;103246.31;;;-1.77;60.30
10167;BME280;62970;53.130;8.244;2023-02-28T22:17:50;103246.09;;;-1.80;59.98
10167;BME280;62970;53.130;8.244;2023-02-28T22:20:19;103248.47;;;-1.83;60.25
10167;BME280;62970;53.130;8.244;2023-02-28T22:22:48;103244.81;;;-1.87;60.04
10167;BME280;62970;53.130;8.244;2023-02-28T22:25:18;103244.59;;;-1.90;60.10
10167;BME280;62970;53.130;8.244;2023-02-28T22:27:50;103238.41;;;-1.93;60.05
10167;BME280;62970;53.130;8.244;2023-02-28T22:30:20;103245.00;;;-1.97;60.12
10167;BME280;62970;53.130;8.244;2023-02-28T22:32:49;103244.88;;;-1.98;60.42
10167;BME280;62970;53.130;8.244;2023-02-28T22:35:19;103239.66;;;-2.00;60.75
10167;BME280;62970;53.130;8.244;2023-02-28T22:37:48;103241.25;;;-2.02;60.72
10167;BME280;62970;53.130;8.244;2023-02-28T22:40:18;103236.91;;;-2.03;60.70
10167;BME280;62970;53.130;8.244;2023-02-28T22:42:50;103243.59;;;-2.05;60.29
10167;BME280;62970;53.130;8.244;2023-02-28T22:45:19;103238.28;;;-2.08;60.63
10167;BME280;62970;53.130;8.244;2023-02-28T22:47:48;103244.16;;;-2.09;60.68
10167;BME280;62970;53.130;8.244;2023-02-28T22:50:18;103236.28;;;-2.12;60.54
10167;BME280;62970;53.130;8.244;2023-02-28T22:52:47;103236.09;;;-2.15;60.72
10167;BME280;62970;53.130;8.244;2023-02-28T22:55:17;103241.88;;;-2.18;60.85
10167;BME280;62970;53.130;8.244;2023-02-28T22:57:46;103247.56;;;-2.22;60.79
10167;BME280;62970;53.130;8.244;2023-02-28T23:00:19;103244.03;;;-2.24;60.68
10167;BME280;62970;53.130;8.244;2023-02-28T23:02:48;103240.59;;;-2.24;60.84
10167;BME280;62970;53.130;8.244;2023-02-28T23:05:18;103237.13;;;-2.25;60.97
10167;BME280;62970;53.130;8.244;2023-02-28T23:07:47;103238.81;;;-2.25;61.03
10167;BME280;62970;53.130;8.244;2023-02-28T23:10:17;103242.03;;;-2.28;60.67
10167;BME280;62970;53.130;8.244;2023-02-28T23:12:47;103239.38;;;-2.29;61.11
10167;BME280;62970;53.130;8.244;2023-02-28T23:15:22;103235.63;;;-2.34;60.96
10167;BME280;62970;53.130;8.244;2023-02-28T23:17:52;103240.63;;;-2.36;61.13
10167;BME280;62970;53.130;8.244;2023-02-28T23:20:21;103230.09;;;-2.41;61.34
10167;BME280;62970;53.130;8.244;2023-02-28T23:22:50;103234.13;;;-2.44;61.10
10167;BME280;62970;53.130;8.244;2023-02-28T23:25:20;103240.69;;;-2.48;61.32
10167;BME280;62970;53.130;8.244;2023-02-28T23:27:52;103245.59;;;-2.51;61.22
10167;BME280;62970;53.130;8.244;2023-02-28T23:30:24;103246.16;;;-2.55;61.00
10167;BME280;62970;53.130;8.244;2023-02-28T23:32:54;103246.06;;;-2.56;61.39
10167;BME280;62970;53.130;8.244;2023-02-28T23:35:23;103247.63;;;-2.58;61.18
10167;BME280;62970;53.130;8.244;2023-02-28T23:37:55;103260.28;;;-2.60;61.09
10167;BME280;62970;53.130;8.244;2023-02-28T23:40:25;103258.50;;;-2.61;61.39
10167;BME280;62970;53.130;8.244;2023-02-28T23:42:54;103272.97;;;-2.61;61.33
10167;BME280;62970;53.130;8.244;2023-02-28T23:45:27;103259.09;;;-2.65;61.47
10167;BME280;62970;53.130;8.244;2023-02-28T23:47:56;103267.63;;;-2.64;61.15
10167;BME280;62970;53.130;8.244;2023-02-28T23:50:26;103255.53;;;-2.67;61.52
10167;BME280;62970;53.130;8.244;2023-02-28T23:52:56;103262.22;;;-2.69;61.67
10167;BME280;62970;53.130;8.244;2023-02-28T23:55:25;103268.00;;;-2.72;61.25
10167;BME280;62970;53.130;8.244;2023-02-28T23:57:54;103251.56;;;-2.75;61.36
